sensor_id;sensor_type;location;lat;lon;timestamp;temperature;humidity
43087;DHT22;28708;52.224;6.924;2022-09-09T00:04:39;15.50;99.90
43087;DHT22;28708;52.224;6.924;2022-09-09T00:07:18;15.50;99.90
43087;DHT22;28708;52.224;6.924;2022-09-09T00:09:49;15.40;99.90
43087;DHT22;28708;52.224;6.924;2022-09-09T00:12:38;15.40;99.90
43087;DHT22;28708;52.224;6.924;2022-09-09T00:15:31;15.30;99.90
43087;DHT22;28708;52.224;6.924;2022-09-09T00:28:32;15.20;99.90
43087;DHT22;28708;52.224;6.924;2022-09-09T00:31:16;15.20;99.90
43087;DHT22;28708;52.224;6.924;2022-09-09T00:33:44;15.20;99.90
43087;DHT22;28708;52.224;6.924;2022-09-09T00:36:18;15.30;99.90
43087;DHT22;28708;52.224;6.924;2022-09-09T00:38:56;15.20;99.90
43087;DHT22;28708;52.224;6.924;2022-09-09T00:58:07;15.10;99.90
43087;DHT22;28708;52.224;6.924;2022-09-09T01:06:10;15.00;99.90
43087;DHT22;28708;52.224;6.924;2022-09-09T01:17:14;14.90;99.90
43087;DHT22;28708;52.224;6.924;2022-09-09T01:22:13;14.80;99.90
43087;DHT22;28708;52.224;6.924;2022-09-09T01:28:10;14.70;99.90
43087;DHT22;28708;52.224;6.924;2022-09-09T01:30:39;14.80;99.90
43087;DHT22;28708;52.224;6.924;2022-09-09T01:33:13;14.70;99.90
43087;DHT22;28708;52.224;6.924;2022-09-09T01:35:46;14.70;99.90
43087;DHT22;28708;52.224;6.924;2022-09-09T01:38:15;14.60;99.90
43087;DHT22;28708;52.224;6.924;2022-09-09T01:40:41;14.50;99.90
43087;DHT22;28708;52.224;6.924;2022-09-09T01:43:07;14.50;99.90
43087;DHT22;28708;52.224;6.924;2022-09-09T01:45:35;14.50;99.90
43087;DHT22;28708;52.224;6.924;2022-09-09T01:48:01;14.50;99.90
43087;DHT22;28708;52.224;6.924;2022-09-09T01:50:43;14.50;99.90
43087;DHT22;28708;52.224;6.924;2022-09-09T01:53:09;14.40;99.90
43087;DHT22;28708;52.224;6.924;2022-09-09T01:55:39;14.40;99.90
43087;DHT22;28708;52.224;6.924;2022-09-09T02:00:47;14.40;99.90
43087;DHT22;28708;52.224;6.924;2022-09-09T02:03:25;14.40;99.90
43087;DHT22;28708;52.224;6.924;2022-09-09T02:08:49;14.30;99.90
43087;DHT22;28708;52.224;6.924;2022-09-09T02:11:18;14.40;99.90
43087;DHT22;28708;52.224;6.924;2022-09-09T02:14:01;14.30;99.90
43087;DHT22;28708;52.224;6.924;2022-09-09T02:16:44;14.30;99.90
43087;DHT22;28708;52.224;6.924;2022-09-09T02:19:19;14.30;99.90
43087;DHT22;28708;52.224;6.924;2022-09-09T02:22:22;14.30;99.90
43087;DHT22;28708;52.224;6.924;2022-09-09T02:24:50;14.20;99.90
43087;DHT22;28708;52.224;6.924;2022-09-09T02:27:24;14.20;99.90
43087;DHT22;28708;52.224;6.924;2022-09-09T02:29:51;14.20;99.90
43087;DHT22;28708;52.224;6.924;2022-09-09T02:32:28;14.20;99.90
43087;DHT22;28708;52.224;6.924;2022-09-09T02:35:02;14.20;99.90
43087;DHT22;28708;52.224;6.924;2022-09-09T02:37:38;14.20;99.90
43087;DHT22;28708;52.224;6.924;2022-09-09T02:40:10;14.10;99.90
43087;DHT22;28708;52.224;6.924;2022-09-09T02:42:45;14.10;99.90
43087;DHT22;28708;52.224;6.924;2022-09-09T02:45:23;14.10;99.90
43087;DHT22;28708;52.224;6.924;2022-09-09T02:51:06;14.10;99.90
43087;DHT22;28708;52.224;6.924;2022-09-09T02:56:46;14.10;99.90
43087;DHT22;28708;52.224;6.924;2022-09-09T02:59:13;14.10;99.90
43087;DHT22;28708;52.224;6.924;2022-09-09T03:01:39;14.10;99.90
43087;DHT22;28708;52.224;6.924;2022-09-09T03:04:06;14.10;99.90
43087;DHT22;28708;52.224;6.924;2022-09-09T03:06:32;14.10;99.90
43087;DHT22;28708;52.224;6.924;2022-09-09T03:09:06;14.00;99.90
43087;DHT22;28708;52.224;6.924;2022-09-09T03:11:33;14.00;99.90
43087;DHT22;28708;52.224;6.924;2022-09-09T03:13:59;14.00;99.90
43087;DHT22;28708;52.224;6.924;2022-09-09T03:16:27;13.90;99.90
43087;DHT22;28708;52.224;6.924;2022-09-09T03:18:54;13.90;99.90
43087;DHT22;28708;52.224;6.924;2022-09-09T03:21:20;13.90;99.90
43087;DHT22;28708;52.224;6.924;2022-09-09T03:23:45;13.90;99.90
43087;DHT22;28708;52.224;6.924;2022-09-09T03:26:12;13.90;99.90
43087;DHT22;28708;52.224;6.924;2022-09-09T03:28:43;13.90;99.90
43087;DHT22;28708;52.224;6.924;2022-09-09T03:31:11;13.90;99.90
43087;DHT22;28708;52.224;6.924;2022-09-09T03:33:40;13.90;99.90
43087;DHT22;28708;52.224;6.924;2022-09-09T03:36:09;13.90;99.90
43087;DHT22;28708;52.224;6.924;2022-09-09T03:38:36;13.90;99.90
43087;DHT22;28708;52.224;6.924;2022-09-09T03:41:02;13.80;99.90
43087;DHT22;28708;52.224;6.924;2022-09-09T03:43:29;13.80;99.90
43087;DHT22;28708;52.224;6.924;2022-09-09T03:45:56;13.80;99.90
43087;DHT22;28708;52.224;6.924;2022-09-09T03:48:26;13.80;99.90
43087;DHT22;28708;52.224;6.924;2022-09-09T03:50:55;13.80;99.90
43087;DHT22;28708;52.224;6.924;2022-09-09T03:53:27;13.80;99.90
43087;DHT22;28708;52.224;6.924;2022-09-09T03:55:55;13.80;99.90
43087;DHT22;28708;52.224;6.924;2022-09-09T03:58:23;13.80;99.90
43087;DHT22;28708;52.224;6.924;2022-09-09T04:00:57;13.80;99.90
43087;DHT22;28708;52.224;6.924;2022-09-09T04:03:25;13.70;99.90
43087;DHT22;28708;52.224;6.924;2022-09-09T04:05:52;13.70;99.90
43087;DHT22;28708;52.224;6.924;2022-09-09T04:08:20;13.70;99.90
43087;DHT22;28708;52.224;6.924;2022-09-09T04:10:47;13.60;99.90
43087;DHT22;28708;52.224;6.924;2022-09-09T04:13:14;13.70;99.90
43087;DHT22;28708;52.224;6.924;2022-09-09T04:15:40;13.60;99.90
43087;DHT22;28708;52.224;6.924;2022-09-09T04:18:06;13.60;99.90
43087;DHT22;28708;52.224;6.924;2022-09-09T04:20:32;13.60;99.90
43087;DHT22;28708;52.224;6.924;2022-09-09T04:22:58;13.70;99.90
43087;DHT22;28708;52.224;6.924;2022-09-09T04:25:24;13.80;99.90
43087;DHT22;28708;52.224;6.924;2022-09-09T04:27:54;13.80;99.90
43087;DHT22;28708;52.224;6.924;2022-09-09T04:30:20;13.80;99.90
43087;DHT22;28708;52.224;6.924;2022-09-09T04:32:46;13.80;99.90
43087;DHT22;28708;52.224;6.924;2022-09-09T04:35:13;13.90;99.90
43087;DHT22;28708;52.224;6.924;2022-09-09T04:37:39;13.90;99.90
43087;DHT22;28708;52.224;6.924;2022-09-09T04:40:07;13.90;99.90
43087;DHT22;28708;52.224;6.924;2022-09-09T04:42:36;13.90;99.90
43087;DHT22;28708;52.224;6.924;2022-09-09T04:45:03;14.00;99.90
43087;DHT22;28708;52.224;6.924;2022-09-09T04:47:29;14.00;99.90
43087;DHT22;28708;52.224;6.924;2022-09-09T04:49:55;14.00;99.90
43087;DHT22;28708;52.224;6.924;2022-09-09T04:52:23;14.10;99.90
43087;DHT22;28708;52.224;6.924;2022-09-09T04:54:48;14.20;99.90
43087;DHT22;28708;52.224;6.924;2022-09-09T04:57:14;14.20;99.90
43087;DHT22;28708;52.224;6.924;2022-09-09T04:59:40;14.20;99.90
43087;DHT22;28708;52.224;6.924;2022-09-09T05:02:06;14.30;99.90
43087;DHT22;28708;52.224;6.924;2022-09-09T05:04:32;14.20;99.90
43087;DHT22;28708;52.224;6.924;2022-09-09T05:06:59;14.30;99.90
43087;DHT22;28708;52.224;6.924;2022-09-09T05:09:25;14.30;99.90
43087;DHT22;28708;52.224;6.924;2022-09-09T05:11:51;14.40;99.90
43087;DHT22;28708;52.224;6.924;2022-09-09T05:14:24;14.40;99.90
43087;DHT22;28708;52.224;6.924;2022-09-09T05:16:50;14.40;99.90
43087;DHT22;28708;52.224;6.924;2022-09-09T05:19:16;14.40;99.90
43087;DHT22;28708;52.224;6.924;2022-09-09T05:21:47;14.40;99.90
43087;DHT22;28708;52.224;6.924;2022-09-09T05:24:16;14.40;99.90
43087;DHT22;28708;52.224;6.924;2022-09-09T05:26:43;14.50;99.90
43087;DHT22;28708;52.224;6.924;2022-09-09T05:29:10;14.50;99.90
43087;DHT22;28708;52.224;6.924;2022-09-09T05:31:36;14.60;99.90
43087;DHT22;28708;52.224;6.924;2022-09-09T05:34:07;14.60;99.90
43087;DHT22;28708;52.224;6.924;2022-09-09T05:36:33;14.70;99.90
43087;DHT22;28708;52.224;6.924;2022-09-09T05:38:59;14.70;99.90
43087;DHT22;28708;52.224;6.924;2022-09-09T05:41:27;14.70;99.90
43087;DHT22;28708;52.224;6.924;2022-09-09T05:43:56;14.80;99.90
43087;DHT22;28708;52.224;6.924;2022-09-09T05:46:23;14.80;99.90
43087;DHT22;28708;52.224;6.924;2022-09-09T05:48:52;14.80;99.90
43087;DHT22;28708;52.224;6.924;2022-09-09T05:51:23;14.90;99.90
43087;DHT22;28708;52.224;6.924;2022-09-09T05:53:50;14.90;99.90
43087;DHT22;28708;52.224;6.924;2022-09-09T05:56:20;14.90;99.90
43087;DHT22;28708;52.224;6.924;2022-09-09T05:58:47;14.90;99.90
43087;DHT22;28708;52.224;6.924;2022-09-09T06:01:23;15.00;99.90
43087;DHT22;28708;52.224;6.924;2022-09-09T06:03:50;15.00;99.90
43087;DHT22;28708;52.224;6.924;2022-09-09T06:06:19;15.10;99.90
43087;DHT22;28708;52.224;6.924;2022-09-09T06:08:51;15.10;99.90
43087;DHT22;28708;52.224;6.924;2022-09-09T06:11:19;15.10;99.90
43087;DHT22;28708;52.224;6.924;2022-09-09T06:13:46;15.10;99.90
43087;DHT22;28708;52.224;6.924;2022-09-09T06:16:15;15.10;99.90
43087;DHT22;28708;52.224;6.924;2022-09-09T06:18:43;15.20;99.90
43087;DHT22;28708;52.224;6.924;2022-09-09T06:21:22;15.20;99.90
43087;DHT22;28708;52.224;6.924;2022-09-09T06:23:48;15.20;99.90
43087;DHT22;28708;52.224;6.924;2022-09-09T06:26:16;15.20;99.90
43087;DHT22;28708;52.224;6.924;2022-09-09T06:28:44;15.20;99.90
43087;DHT22;28708;52.224;6.924;2022-09-09T06:31:12;15.30;99.90
43087;DHT22;28708;52.224;6.924;2022-09-09T06:33:41;15.30;99.90
43087;DHT22;28708;52.224;6.924;2022-09-09T06:36:13;15.30;99.90
43087;DHT22;28708;52.224;6.924;2022-09-09T06:38:41;15.40;99.90
43087;DHT22;28708;52.224;6.924;2022-09-09T06:41:10;15.50;99.90
43087;DHT22;28708;52.224;6.924;2022-09-09T06:43:38;15.60;99.90
43087;DHT22;28708;52.224;6.924;2022-09-09T06:46:11;15.70;99.90
43087;DHT22;28708;52.224;6.924;2022-09-09T06:48:41;15.60;99.90
43087;DHT22;28708;52.224;6.924;2022-09-09T06:51:12;15.70;99.90
43087;DHT22;28708;52.224;6.924;2022-09-09T06:53:39;15.80;99.90
43087;DHT22;28708;52.224;6.924;2022-09-09T06:56:22;15.80;99.90
43087;DHT22;28708;52.224;6.924;2022-09-09T06:58:51;15.80;99.90
43087;DHT22;28708;52.224;6.924;2022-09-09T07:01:27;15.90;99.90
43087;DHT22;28708;52.224;6.924;2022-09-09T07:03:56;15.90;99.90
43087;DHT22;28708;52.224;6.924;2022-09-09T07:06:29;16.00;99.90
43087;DHT22;28708;52.224;6.924;2022-09-09T07:08:59;15.90;99.90
43087;DHT22;28708;52.224;6.924;2022-09-09T07:11:31;16.00;99.90
43087;DHT22;28708;52.224;6.924;2022-09-09T07:13:59;16.00;99.90
43087;DHT22;28708;52.224;6.924;2022-09-09T07:16:26;16.10;99.90
43087;DHT22;28708;52.224;6.924;2022-09-09T07:18:54;16.30;99.90
43087;DHT22;28708;52.224;6.924;2022-09-09T07:21:25;16.40;99.90
43087;DHT22;28708;52.224;6.924;2022-09-09T07:23:53;16.50;99.90
43087;DHT22;28708;52.224;6.924;2022-09-09T07:26:22;16.50;99.90
43087;DHT22;28708;52.224;6.924;2022-09-09T07:28:48;16.60;99.90
43087;DHT22;28708;52.224;6.924;2022-09-09T07:31:17;16.70;99.90
43087;DHT22;28708;52.224;6.924;2022-09-09T07:33:44;16.80;99.90
43087;DHT22;28708;52.224;6.924;2022-09-09T07:36:16;17.00;99.90
43087;DHT22;28708;52.224;6.924;2022-09-09T07:38:45;17.10;99.90
43087;DHT22;28708;52.224;6.924;2022-09-09T07:41:15;17.20;99.90
43087;DHT22;28708;52.224;6.924;2022-09-09T07:43:45;17.30;99.90
43087;DHT22;28708;52.224;6.924;2022-09-09T07:46:13;17.40;99.90
43087;DHT22;28708;52.224;6.924;2022-09-09T07:48:45;17.30;99.90
43087;DHT22;28708;52.224;6.924;2022-09-09T07:51:14;17.40;99.90
43087;DHT22;28708;52.224;6.924;2022-09-09T07:53:43;17.30;99.90
43087;DHT22;28708;52.224;6.924;2022-09-09T07:56:12;17.30;99.90
43087;DHT22;28708;52.224;6.924;2022-09-09T07:58:39;17.20;99.90
43087;DHT22;28708;52.224;6.924;2022-09-09T08:01:28;17.20;99.90
43087;DHT22;28708;52.224;6.924;2022-09-09T08:04:04;17.20;99.90
43087;DHT22;28708;52.224;6.924;2022-09-09T08:06:32;17.20;99.90
43087;DHT22;28708;52.224;6.924;2022-09-09T08:08:59;17.30;99.90
43087;DHT22;28708;52.224;6.924;2022-09-09T08:11:28;17.40;99.90
43087;DHT22;28708;52.224;6.924;2022-09-09T08:13:55;17.50;99.90
43087;DHT22;28708;52.224;6.924;2022-09-09T08:16:23;17.50;99.90
43087;DHT22;28708;52.224;6.924;2022-09-09T08:18:51;17.60;99.90
43087;DHT22;28708;52.224;6.924;2022-09-09T08:21:23;17.80;99.90
43087;DHT22;28708;52.224;6.924;2022-09-09T08:23:52;18.00;99.90
43087;DHT22;28708;52.224;6.924;2022-09-09T08:26:20;18.00;99.90
43087;DHT22;28708;52.224;6.924;2022-09-09T08:28:51;17.80;99.90
43087;DHT22;28708;52.224;6.924;2022-09-09T08:33:51;17.80;99.90
43087;DHT22;28708;52.224;6.924;2022-09-09T08:36:19;17.80;99.90
43087;DHT22;28708;52.224;6.924;2022-09-09T08:38:51;17.80;99.90
43087;DHT22;28708;52.224;6.924;2022-09-09T08:41:35;17.80;99.90
43087;DHT22;28708;52.224;6.924;2022-09-09T08:44:28;17.90;99.90
43087;DHT22;28708;52.224;6.924;2022-09-09T08:47:03;17.80;99.90
43087;DHT22;28708;52.224;6.924;2022-09-09T08:49:38;17.90;99.90
43087;DHT22;28708;52.224;6.924;2022-09-09T08:55:19;18.20;99.90
43087;DHT22;28708;52.224;6.924;2022-09-09T08:57:48;18.50;99.90
43087;DHT22;28708;52.224;6.924;2022-09-09T09:00:15;18.30;99.90
43087;DHT22;28708;52.224;6.924;2022-09-09T09:03:11;18.30;99.90
43087;DHT22;28708;52.224;6.924;2022-09-09T09:05:47;18.40;99.90
43087;DHT22;28708;52.224;6.924;2022-09-09T09:10:54;18.50;99.90
43087;DHT22;28708;52.224;6.924;2022-09-09T09:18:53;17.90;99.90
43087;DHT22;28708;52.224;6.924;2022-09-09T09:21:36;18.00;99.90
43087;DHT22;28708;52.224;6.924;2022-09-09T09:24:12;18.10;99.90
43087;DHT22;28708;52.224;6.924;2022-09-09T09:26:43;18.40;99.90
43087;DHT22;28708;52.224;6.924;2022-09-09T09:29:17;18.90;99.90
43087;DHT22;28708;52.224;6.924;2022-09-09T09:31:52;19.10;99.90
43087;DHT22;28708;52.224;6.924;2022-09-09T09:34:21;19.20;99.90
43087;DHT22;28708;52.224;6.924;2022-09-09T09:36:54;19.30;99.90
43087;DHT22;28708;52.224;6.924;2022-09-09T09:39:30;19.40;99.90
43087;DHT22;28708;52.224;6.924;2022-09-09T09:42:11;19.70;99.90
43087;DHT22;28708;52.224;6.924;2022-09-09T09:44:43;20.00;99.90
43087;DHT22;28708;52.224;6.924;2022-09-09T09:47:18;21.20;99.90
43087;DHT22;28708;52.224;6.924;2022-09-09T09:50:18;21.80;99.90
43087;DHT22;28708;52.224;6.924;2022-09-09T09:52:57;21.50;99.90
43087;DHT22;28708;52.224;6.924;2022-09-09T09:55:25;22.00;99.90
43087;DHT22;28708;52.224;6.924;2022-09-09T09:57:53;20.40;99.90
43087;DHT22;28708;52.224;6.924;2022-09-09T10:00:23;19.70;99.90
43087;DHT22;28708;52.224;6.924;2022-09-09T10:03:00;19.30;99.90
43087;DHT22;28708;52.224;6.924;2022-09-09T10:05:31;19.00;99.90
43087;DHT22;28708;52.224;6.924;2022-09-09T10:08:12;20.50;99.90
43087;DHT22;28708;52.224;6.924;2022-09-09T10:14:00;20.20;99.90
43087;DHT22;28708;52.224;6.924;2022-09-09T10:19:34;19.80;99.90
43087;DHT22;28708;52.224;6.924;2022-09-09T10:25:14;19.70;99.90
43087;DHT22;28708;52.224;6.924;2022-09-09T10:31:01;20.80;99.90
43087;DHT22;28708;52.224;6.924;2022-09-09T10:33:58;20.80;99.90
43087;DHT22;28708;52.224;6.924;2022-09-09T10:36:26;20.60;99.90
43087;DHT22;28708;52.224;6.924;2022-09-09T10:55:39;22.20;99.90
43087;DHT22;28708;52.224;6.924;2022-09-09T10:58:09;22.70;99.90
43087;DHT22;28708;52.224;6.924;2022-09-09T11:00:45;22.70;99.90
43087;DHT22;28708;52.224;6.924;2022-09-09T11:03:20;22.90;99.90
43087;DHT22;28708;52.224;6.924;2022-09-09T11:05:49;22.30;99.90
43087;DHT22;28708;52.224;6.924;2022-09-09T11:08:26;22.40;99.90
43087;DHT22;28708;52.224;6.924;2022-09-09T11:10:59;21.30;99.90
43087;DHT22;28708;52.224;6.924;2022-09-09T11:16:34;21.80;99.90
43087;DHT22;28708;52.224;6.924;2022-09-09T11:19:09;21.00;99.90
43087;DHT22;28708;52.224;6.924;2022-09-09T11:21:44;21.30;99.90
43087;DHT22;28708;52.224;6.924;2022-09-09T11:24:21;21.60;99.90
43087;DHT22;28708;52.224;6.924;2022-09-09T11:26:58;21.10;99.90
43087;DHT22;28708;52.224;6.924;2022-09-09T11:29:36;21.40;99.90
43087;DHT22;28708;52.224;6.924;2022-09-09T11:32:26;22.20;99.90
43087;DHT22;28708;52.224;6.924;2022-09-09T11:40:45;23.80;99.90
43087;DHT22;28708;52.224;6.924;2022-09-09T11:43:27;22.30;99.90
43087;DHT22;28708;52.224;6.924;2022-09-09T11:45:56;21.60;99.90
43087;DHT22;28708;52.224;6.924;2022-09-09T11:53:33;21.40;99.90
43087;DHT22;28708;52.224;6.924;2022-09-09T11:56:12;21.20;99.90
43087;DHT22;28708;52.224;6.924;2022-09-09T11:58:44;21.10;99.90
43087;DHT22;28708;52.224;6.924;2022-09-09T12:01:35;20.70;99.90
43087;DHT22;28708;52.224;6.924;2022-09-09T12:04:27;20.40;99.90
43087;DHT22;28708;52.224;6.924;2022-09-09T12:17:27;20.80;99.90
43087;DHT22;28708;52.224;6.924;2022-09-09T12:20:15;20.80;99.90
43087;DHT22;28708;52.224;6.924;2022-09-09T12:31:51;20.50;99.90
43087;DHT22;28708;52.224;6.924;2022-09-09T12:34:59;20.30;99.90
43087;DHT22;28708;52.224;6.924;2022-09-09T12:37:36;20.30;99.90
43087;DHT22;28708;52.224;6.924;2022-09-09T12:40:05;20.20;99.90
43087;DHT22;28708;52.224;6.924;2022-09-09T12:42:32;20.00;99.90
43087;DHT22;28708;52.224;6.924;2022-09-09T12:45:03;19.80;99.90
43087;DHT22;28708;52.224;6.924;2022-09-09T12:47:40;19.70;99.90
43087;DHT22;28708;52.224;6.924;2022-09-09T12:52:43;19.70;99.90
43087;DHT22;28708;52.224;6.924;2022-09-09T12:55:20;19.80;99.90
43087;DHT22;28708;52.224;6.924;2022-09-09T12:57:48;19.70;99.90
43087;DHT22;28708;52.224;6.924;2022-09-09T13:00:21;19.60;99.90
43087;DHT22;28708;52.224;6.924;2022-09-09T13:02:59;19.60;99.90
43087;DHT22;28708;52.224;6.924;2022-09-09T13:05:37;19.30;99.90
43087;DHT22;28708;52.224;6.924;2022-09-09T13:08:10;19.20;99.90
43087;DHT22;28708;52.224;6.924;2022-09-09T13:10:50;19.00;99.90
43087;DHT22;28708;52.224;6.924;2022-09-09T13:13:55;18.80;99.90
43087;DHT22;28708;52.224;6.924;2022-09-09T13:16:33;18.20;99.90
43087;DHT22;28708;52.224;6.924;2022-09-09T13:19:02;17.80;99.90
43087;DHT22;28708;52.224;6.924;2022-09-09T13:21:35;17.80;99.90
43087;DHT22;28708;52.224;6.924;2022-09-09T13:24:01;18.20;99.90
43087;DHT22;28708;52.224;6.924;2022-09-09T13:26:30;18.80;99.90
43087;DHT22;28708;52.224;6.924;2022-09-09T13:29:16;18.90;99.90
43087;DHT22;28708;52.224;6.924;2022-09-09T13:31:43;18.60;99.90
43087;DHT22;28708;52.224;6.924;2022-09-09T13:34:30;18.70;99.90
43087;DHT22;28708;52.224;6.924;2022-09-09T13:37:06;18.80;99.90
43087;DHT22;28708;52.224;6.924;2022-09-09T13:39:51;19.00;99.90
43087;DHT22;28708;52.224;6.924;2022-09-09T13:42:29;19.00;99.90
43087;DHT22;28708;52.224;6.924;2022-09-09T13:44:58;19.20;99.90
43087;DHT22;28708;52.224;6.924;2022-09-09T13:47:35;19.40;99.90
43087;DHT22;28708;52.224;6.924;2022-09-09T13:50:28;19.50;99.90
43087;DHT22;28708;52.224;6.924;2022-09-09T13:52:56;19.10;99.90
43087;DHT22;28708;52.224;6.924;2022-09-09T13:55:25;19.10;99.90
43087;DHT22;28708;52.224;6.924;2022-09-09T13:57:57;19.00;99.90
43087;DHT22;28708;52.224;6.924;2022-09-09T14:00:24;18.70;99.90
43087;DHT22;28708;52.224;6.924;2022-09-09T14:02:51;18.70;99.90
43087;DHT22;28708;52.224;6.924;2022-09-09T14:05:18;18.90;99.90
43087;DHT22;28708;52.224;6.924;2022-09-09T14:07:44;18.80;99.90
43087;DHT22;28708;52.224;6.924;2022-09-09T14:10:11;19.10;99.90
43087;DHT22;28708;52.224;6.924;2022-09-09T14:12:37;19.20;99.90
43087;DHT22;28708;52.224;6.924;2022-09-09T14:15:05;19.30;99.90
43087;DHT22;28708;52.224;6.924;2022-09-09T14:17:33;19.00;99.90
43087;DHT22;28708;52.224;6.924;2022-09-09T14:19:59;19.00;99.90
43087;DHT22;28708;52.224;6.924;2022-09-09T14:22:25;18.70;99.90
43087;DHT22;28708;52.224;6.924;2022-09-09T14:24:51;18.80;99.90
43087;DHT22;28708;52.224;6.924;2022-09-09T14:27:17;18.70;99.90
43087;DHT22;28708;52.224;6.924;2022-09-09T14:29:44;19.30;99.90
43087;DHT22;28708;52.224;6.924;2022-09-09T14:32:11;20.10;99.90
43087;DHT22;28708;52.224;6.924;2022-09-09T14:34:37;20.20;99.90
43087;DHT22;28708;52.224;6.924;2022-09-09T14:37:03;19.80;99.90
43087;DHT22;28708;52.224;6.924;2022-09-09T14:39:29;19.30;99.90
43087;DHT22;28708;52.224;6.924;2022-09-09T14:41:56;19.10;99.90
43087;DHT22;28708;52.224;6.924;2022-09-09T14:44:22;19.00;99.90
43087;DHT22;28708;52.224;6.924;2022-09-09T14:46:47;19.00;99.90
43087;DHT22;28708;52.224;6.924;2022-09-09T14:49:15;19.10;99.90
43087;DHT22;28708;52.224;6.924;2022-09-09T14:51:42;19.10;99.90
43087;DHT22;28708;52.224;6.924;2022-09-09T14:54:08;19.00;99.90
43087;DHT22;28708;52.224;6.924;2022-09-09T14:56:34;19.20;99.90
43087;DHT22;28708;52.224;6.924;2022-09-09T14:59:00;19.40;99.90
43087;DHT22;28708;52.224;6.924;2022-09-09T15:01:28;19.40;99.90
43087;DHT22;28708;52.224;6.924;2022-09-09T15:04:05;19.30;99.90
43087;DHT22;28708;52.224;6.924;2022-09-09T15:06:33;19.10;99.90
43087;DHT22;28708;52.224;6.924;2022-09-09T15:08:59;19.20;99.90
43087;DHT22;28708;52.224;6.924;2022-09-09T15:11:28;19.40;99.90
43087;DHT22;28708;52.224;6.924;2022-09-09T15:13:56;19.40;99.90
43087;DHT22;28708;52.224;6.924;2022-09-09T15:16:25;19.40;99.90
43087;DHT22;28708;52.224;6.924;2022-09-09T15:18:53;19.20;99.90
43087;DHT22;28708;52.224;6.924;2022-09-09T15:21:21;19.10;99.90
43087;DHT22;28708;52.224;6.924;2022-09-09T15:23:48;18.90;99.90
43087;DHT22;28708;52.224;6.924;2022-09-09T15:26:15;19.00;99.90
43087;DHT22;28708;52.224;6.924;2022-09-09T15:28:43;19.00;99.90
43087;DHT22;28708;52.224;6.924;2022-09-09T15:31:15;19.10;99.90
43087;DHT22;28708;52.224;6.924;2022-09-09T15:33:57;19.10;99.90
43087;DHT22;28708;52.224;6.924;2022-09-09T15:36:28;19.00;99.90
43087;DHT22;28708;52.224;6.924;2022-09-09T15:38:54;18.90;99.90
43087;DHT22;28708;52.224;6.924;2022-09-09T15:41:22;18.80;99.90
43087;DHT22;28708;52.224;6.924;2022-09-09T15:43:50;18.80;99.90
43087;DHT22;28708;52.224;6.924;2022-09-09T15:48:44;18.60;99.90
43087;DHT22;28708;52.224;6.924;2022-09-09T15:51:10;18.50;99.90
43087;DHT22;28708;52.224;6.924;2022-09-09T15:53:37;18.50;99.90
43087;DHT22;28708;52.224;6.924;2022-09-09T15:56:05;18.50;99.90
43087;DHT22;28708;52.224;6.924;2022-09-09T15:58:35;18.50;99.90
43087;DHT22;28708;52.224;6.924;2022-09-09T16:01:08;18.50;99.90
43087;DHT22;28708;52.224;6.924;2022-09-09T16:03:36;18.40;99.90
43087;DHT22;28708;52.224;6.924;2022-09-09T16:06:02;18.40;99.90
43087;DHT22;28708;52.224;6.924;2022-09-09T16:08:47;18.40;99.90
43087;DHT22;28708;52.224;6.924;2022-09-09T16:11:29;18.40;99.90
43087;DHT22;28708;52.224;6.924;2022-09-09T16:13:55;18.40;99.90
43087;DHT22;28708;52.224;6.924;2022-09-09T16:16:24;18.30;99.90
43087;DHT22;28708;52.224;6.924;2022-09-09T16:18:55;18.10;99.90
43087;DHT22;28708;52.224;6.924;2022-09-09T16:21:27;17.80;99.90
43087;DHT22;28708;52.224;6.924;2022-09-09T16:23:58;17.60;99.90
43087;DHT22;28708;52.224;6.924;2022-09-09T16:26:30;17.60;99.90
43087;DHT22;28708;52.224;6.924;2022-09-09T16:28:56;17.70;99.90
43087;DHT22;28708;52.224;6.924;2022-09-09T16:31:27;17.80;99.90
43087;DHT22;28708;52.224;6.924;2022-09-09T16:33:53;18.00;99.90
43087;DHT22;28708;52.224;6.924;2022-09-09T16:36:22;18.00;99.90
43087;DHT22;28708;52.224;6.924;2022-09-09T16:38:55;18.00;99.90
43087;DHT22;28708;52.224;6.924;2022-09-09T16:41:23;18.10;99.90
43087;DHT22;28708;52.224;6.924;2022-09-09T16:43:54;18.00;99.90
43087;DHT22;28708;52.224;6.924;2022-09-09T16:46:21;18.10;99.90
43087;DHT22;28708;52.224;6.924;2022-09-09T16:48:48;18.10;99.90
43087;DHT22;28708;52.224;6.924;2022-09-09T16:51:17;18.10;99.90
43087;DHT22;28708;52.224;6.924;2022-09-09T16:53:43;18.00;99.90
43087;DHT22;28708;52.224;6.924;2022-09-09T16:56:14;17.90;99.90
43087;DHT22;28708;52.224;6.924;2022-09-09T16:58:40;17.90;99.90
43087;DHT22;28708;52.224;6.924;2022-09-09T17:01:09;17.80;99.90
43087;DHT22;28708;52.224;6.924;2022-09-09T17:03:36;17.80;99.90
43087;DHT22;28708;52.224;6.924;2022-09-09T17:06:03;17.70;99.90
43087;DHT22;28708;52.224;6.924;2022-09-09T17:08:34;17.50;99.90
43087;DHT22;28708;52.224;6.924;2022-09-09T17:10:59;17.10;99.90
43087;DHT22;28708;52.224;6.924;2022-09-09T17:13:25;16.80;99.90
43087;DHT22;28708;52.224;6.924;2022-09-09T17:15:51;16.70;99.90
43087;DHT22;28708;52.224;6.924;2022-09-09T17:18:18;16.60;99.90
43087;DHT22;28708;52.224;6.924;2022-09-09T17:20:44;16.60;99.90
43087;DHT22;28708;52.224;6.924;2022-09-09T17:23:11;16.60;99.90
43087;DHT22;28708;52.224;6.924;2022-09-09T17:25:37;16.60;99.90
43087;DHT22;28708;52.224;6.924;2022-09-09T17:28:04;16.50;99.90
43087;DHT22;28708;52.224;6.924;2022-09-09T17:30:34;16.60;99.90
43087;DHT22;28708;52.224;6.924;2022-09-09T17:33:00;16.60;99.90
43087;DHT22;28708;52.224;6.924;2022-09-09T17:35:26;16.40;99.90
43087;DHT22;28708;52.224;6.924;2022-09-09T17:37:53;16.40;99.90
43087;DHT22;28708;52.224;6.924;2022-09-09T17:40:20;16.40;99.90
43087;DHT22;28708;52.224;6.924;2022-09-09T17:42:53;16.40;99.90
43087;DHT22;28708;52.224;6.924;2022-09-09T17:45:19;16.30;99.90
43087;DHT22;28708;52.224;6.924;2022-09-09T17:47:45;16.20;99.90
43087;DHT22;28708;52.224;6.924;2022-09-09T17:50:11;16.30;99.90
43087;DHT22;28708;52.224;6.924;2022-09-09T17:52:39;16.20;99.90
43087;DHT22;28708;52.224;6.924;2022-09-09T17:55:06;16.20;99.90
43087;DHT22;28708;52.224;6.924;2022-09-09T17:57:32;16.20;99.90
43087;DHT22;28708;52.224;6.924;2022-09-09T17:59:58;16.00;99.90
43087;DHT22;28708;52.224;6.924;2022-09-09T18:02:24;15.90;99.90
43087;DHT22;28708;52.224;6.924;2022-09-09T18:04:50;15.90;99.90
43087;DHT22;28708;52.224;6.924;2022-09-09T18:07:16;15.90;99.90
43087;DHT22;28708;52.224;6.924;2022-09-09T18:09:41;15.90;99.90
43087;DHT22;28708;52.224;6.924;2022-09-09T18:12:08;15.90;99.90
43087;DHT22;28708;52.224;6.924;2022-09-09T18:14:33;15.90;99.90
43087;DHT22;28708;52.224;6.924;2022-09-09T18:17:01;15.90;99.90